VOI1331 MMAA-MMGL
Flight info
| Callsign | VOI1331 |
|---|---|
| Flight time | 0h 53m |
| Altitude | 38000 |
| Route | AGLON1B AGLON UT145 IGSON IGSON1B |
| Aircraft | A319/M-SDE3FGHIRWY/LB1 |
Departure
| Time | 2026-05-06 00:57 |
|---|---|
| Airport | General Juan N. Álvarez International Airport (MMAA) |
Arrival
| Time | 2026-05-06 01:51 |
|---|---|
| Airport | Guadalajara International Airport (MMGL) |
| Time | Latitude | Longitude | Altitude | Speed | Heading |
|---|---|---|---|---|---|
| 2026-05-06 00:29 | 16.76153 | -99.75556 | 23 ft | 0 kts | 16° |
| 2026-05-06 00:46 | 16.76137 | -99.75561 | 21 ft | 4 kts | 18° |
| 2026-05-06 00:46 | 16.76111 | -99.75570 | 23 ft | 4 kts | 21° |
| 2026-05-06 00:46 | 16.76086 | -99.75581 | 22 ft | 4 kts | 27° |
| 2026-05-06 00:47 | 16.76063 | -99.75595 | 25 ft | 4 kts | 48° |
| 2026-05-06 00:47 | 16.76054 | -99.75615 | 21 ft | 2 kts | 107° |
| 2026-05-06 00:47 | 16.76056 | -99.75620 | 21 ft | 0 kts | 107° |
| 2026-05-06 00:50 | 16.76054 | -99.75615 | 21 ft | 1 kts | 107° |
| 2026-05-06 00:50 | 16.76048 | -99.75594 | 22 ft | 5 kts | 107° |
| 2026-05-06 00:50 | 16.76032 | -99.75540 | 21 ft | 9 kts | 107° |
| 2026-05-06 00:50 | 16.76011 | -99.75468 | 23 ft | 11 kts | 107° |
| 2026-05-06 00:51 | 16.75986 | -99.75384 | 22 ft | 12 kts | 109° |
| 2026-05-06 00:51 | 16.75930 | -99.75351 | 21 ft | 9 kts | 165° |
| 2026-05-06 00:51 | 16.75885 | -99.75303 | 21 ft | 11 kts | 107° |
| 2026-05-06 00:51 | 16.75861 | -99.75221 | 21 ft | 13 kts | 108° |
| 2026-05-06 00:52 | 16.75831 | -99.75127 | 21 ft | 15 kts | 108° |
| 2026-05-06 00:52 | 16.75797 | -99.75017 | 22 ft | 17 kts | 108° |
| 2026-05-06 00:52 | 16.75759 | -99.74896 | 20 ft | 18 kts | 108° |
| 2026-05-06 00:52 | 16.75717 | -99.74763 | 20 ft | 20 kts | 108° |
| 2026-05-06 00:53 | 16.75671 | -99.74619 | 21 ft | 22 kts | 108° |
| 2026-05-06 00:53 | 16.75622 | -99.74460 | 22 ft | 24 kts | 108° |
| 2026-05-06 00:53 | 16.75568 | -99.74289 | 23 ft | 26 kts | 108° |
| 2026-05-06 00:53 | 16.75512 | -99.74108 | 23 ft | 26 kts | 108° |
| 2026-05-06 00:54 | 16.75458 | -99.73937 | 21 ft | 25 kts | 108° |
| 2026-05-06 00:54 | 16.75411 | -99.73785 | 23 ft | 17 kts | 108° |
| 2026-05-06 00:54 | 16.75371 | -99.73658 | 21 ft | 19 kts | 108° |
| 2026-05-06 00:54 | 16.75328 | -99.73519 | 21 ft | 21 kts | 108° |
| 2026-05-06 00:55 | 16.75284 | -99.73380 | 21 ft | 13 kts | 108° |
| 2026-05-06 00:55 | 16.75225 | -99.73328 | 21 ft | 13 kts | 181° |
| 2026-05-06 00:55 | 16.75135 | -99.73356 | 22 ft | 14 kts | 199° |
| 2026-05-06 00:55 | 16.75090 | -99.73399 | 21 ft | 7 kts | 266° |
| 2026-05-06 00:56 | 16.75096 | -99.73427 | 21 ft | 0 kts | 289° |
| 2026-05-06 00:56 | 16.75097 | -99.73429 | 22 ft | 2 kts | 289° |
| 2026-05-06 00:56 | 16.75128 | -99.73526 | 21 ft | 38 kts | 288° |
| 2026-05-06 00:56 | 16.75277 | -99.73999 | 22 ft | 96 kts | 288° |
| 2026-05-06 00:57 | 16.75549 | -99.74862 | 23 ft | 149 kts | 288° |
| 2026-05-06 00:57 | 16.75892 | -99.75982 | 416 ft | 163 kts | 283° |
| 2026-05-06 00:57 | 16.76232 | -99.77112 | 1096 ft | 163 kts | 289° |
| 2026-05-06 00:57 | 16.76578 | -99.78233 | 1844 ft | 163 kts | 285° |
| 2026-05-06 00:58 | 16.76948 | -99.79422 | 2208 ft | 184 kts | 287° |
| 2026-05-06 00:58 | 16.77380 | -99.80797 | 2581 ft | 209 kts | 286° |
| 2026-05-06 00:58 | 16.77865 | -99.82337 | 3006 ft | 234 kts | 287° |
| 2026-05-06 00:58 | 16.78394 | -99.84015 | 3510 ft | 255 kts | 288° |
| 2026-05-06 00:59 | 16.78964 | -99.85799 | 4372 ft | 262 kts | 290° |
| 2026-05-06 00:59 | 16.79937 | -99.87418 | 5238 ft | 268 kts | 315° |
| 2026-05-06 00:59 | 16.81551 | -99.88434 | 6056 ft | 277 kts | 341° |
| 2026-05-06 00:59 | 16.83432 | -99.88964 | 6870 ft | 282 kts | 345° |
| 2026-05-06 01:00 | 16.85347 | -99.89485 | 7670 ft | 287 kts | 346° |
| 2026-05-06 01:00 | 16.87294 | -99.90019 | 8474 ft | 291 kts | 346° |
| 2026-05-06 01:00 | 16.89269 | -99.90565 | 9306 ft | 296 kts | 346° |
| 2026-05-06 01:00 | 16.91275 | -99.91122 | 10070 ft | 301 kts | 346° |
| 2026-05-06 01:01 | 16.93361 | -99.91700 | 10416 ft | 321 kts | 347° |
| 2026-05-06 01:01 | 16.95513 | -99.92516 | 10834 ft | 336 kts | 335° |
| 2026-05-06 01:01 | 16.97518 | -99.93822 | 11023 ft | 341 kts | 322° |
| 2026-05-06 01:01 | 16.99352 | -99.95399 | 11063 ft | 342 kts | 322° |
| 2026-05-06 01:02 | 17.01192 | -99.96981 | 11075 ft | 343 kts | 322° |
| 2026-05-06 01:02 | 17.03033 | -99.98558 | 11075 ft | 343 kts | 322° |
| 2026-05-06 01:02 | 17.04880 | -100.00137 | 11075 ft | 343 kts | 322° |
| 2026-05-06 01:02 | 17.06725 | -100.01713 | 11080 ft | 343 kts | 322° |
| 2026-05-06 01:03 | 17.08586 | -100.03301 | 11616 ft | 346 kts | 322° |
| 2026-05-06 01:03 | 17.10456 | -100.04899 | 12287 ft | 349 kts | 322° |
| 2026-05-06 01:03 | 17.12345 | -100.06512 | 12990 ft | 352 kts | 322° |
| 2026-05-06 01:03 | 17.14243 | -100.08133 | 13649 ft | 356 kts | 322° |
| 2026-05-06 01:04 | 17.16185 | -100.09790 | 14259 ft | 359 kts | 322° |
| 2026-05-06 01:04 | 17.18137 | -100.11453 | 14845 ft | 363 kts | 322° |
| 2026-05-06 01:04 | 17.20110 | -100.13135 | 15396 ft | 368 kts | 321° |
| 2026-05-06 01:04 | 17.22106 | -100.14841 | 15982 ft | 373 kts | 321° |
| 2026-05-06 01:05 | 17.24125 | -100.16571 | 16542 ft | 377 kts | 321° |
| 2026-05-06 01:05 | 17.26167 | -100.18323 | 17101 ft | 382 kts | 321° |
| 2026-05-06 01:05 | 17.28235 | -100.20097 | 17626 ft | 387 kts | 321° |
| 2026-05-06 01:05 | 17.29620 | -100.21284 | 17941 ft | 389 kts | 321° |
| 2026-05-06 01:06 | 17.31716 | -100.23083 | 18082 ft | 390 kts | 321° |
| 2026-05-06 01:06 | 17.33814 | -100.24883 | 18117 ft | 390 kts | 321° |
| 2026-05-06 01:06 | 17.35920 | -100.26689 | 18417 ft | 393 kts | 322° |
| 2026-05-06 01:06 | 17.38043 | -100.28507 | 18905 ft | 395 kts | 321° |
| 2026-05-06 01:07 | 17.40179 | -100.30336 | 19399 ft | 398 kts | 321° |
| 2026-05-06 01:07 | 17.42331 | -100.32180 | 19896 ft | 401 kts | 321° |
| 2026-05-06 01:07 | 17.44499 | -100.34041 | 20392 ft | 404 kts | 321° |
| 2026-05-06 01:07 | 17.46679 | -100.35918 | 20895 ft | 407 kts | 321° |
| 2026-05-06 01:08 | 17.48876 | -100.37807 | 21382 ft | 410 kts | 321° |
| 2026-05-06 01:08 | 17.51092 | -100.39713 | 21881 ft | 413 kts | 321° |
| 2026-05-06 01:08 | 17.53321 | -100.41633 | 22336 ft | 416 kts | 321° |
| 2026-05-06 01:08 | 17.55568 | -100.43568 | 22821 ft | 420 kts | 321° |
| 2026-05-06 01:09 | 17.57831 | -100.45517 | 23278 ft | 423 kts | 321° |
| 2026-05-06 01:09 | 17.60115 | -100.47484 | 23699 ft | 426 kts | 321° |
| 2026-05-06 01:09 | 17.62415 | -100.49467 | 24060 ft | 429 kts | 321° |
| 2026-05-06 01:09 | 17.64725 | -100.51459 | 24466 ft | 431 kts | 321° |
| 2026-05-06 01:10 | 17.67050 | -100.53463 | 24885 ft | 433 kts | 321° |
| 2026-05-06 01:10 | 17.69380 | -100.55472 | 25287 ft | 435 kts | 320° |
| 2026-05-06 01:10 | 17.71722 | -100.57494 | 25679 ft | 437 kts | 320° |
| 2026-05-06 01:10 | 17.74081 | -100.59529 | 25991 ft | 441 kts | 320° |
| 2026-05-06 01:11 | 17.76459 | -100.61580 | 26381 ft | 444 kts | 320° |
| 2026-05-06 01:11 | 17.78848 | -100.63640 | 26775 ft | 446 kts | 320° |
| 2026-05-06 01:11 | 17.81281 | -100.65735 | 27173 ft | 448 kts | 320° |
| 2026-05-06 01:11 | 17.83663 | -100.67787 | 27549 ft | 450 kts | 320° |
| 2026-05-06 01:12 | 17.86118 | -100.69906 | 27946 ft | 452 kts | 320° |
| 2026-05-06 01:12 | 17.88556 | -100.72015 | 28282 ft | 454 kts | 319° |
| 2026-05-06 01:12 | 17.90995 | -100.74126 | 28714 ft | 456 kts | 319° |
| 2026-05-06 01:12 | 17.93419 | -100.76220 | 29106 ft | 458 kts | 319° |
| 2026-05-06 01:13 | 17.95885 | -100.78354 | 29487 ft | 460 kts | 319° |
| 2026-05-06 01:13 | 17.98364 | -100.80501 | 29881 ft | 463 kts | 319° |
| 2026-05-06 01:13 | 18.00850 | -100.82657 | 30224 ft | 464 kts | 319° |
| 2026-05-06 01:13 | 18.03344 | -100.84821 | 30576 ft | 465 kts | 319° |
| 2026-05-06 01:14 | 18.08352 | -100.89160 | 31302 ft | 467 kts | 319° |
| 2026-05-06 01:14 | 18.10866 | -100.91333 | 31658 ft | 468 kts | 319° |
| 2026-05-06 01:14 | 18.13369 | -100.93499 | 32111 ft | 465 kts | 318° |
| 2026-05-06 01:15 | 18.15854 | -100.95654 | 32652 ft | 461 kts | 318° |
| 2026-05-06 01:15 | 18.18320 | -100.97790 | 33211 ft | 457 kts | 318° |
| 2026-05-06 01:15 | 18.20766 | -100.99911 | 33789 ft | 454 kts | 318° |
| 2026-05-06 01:15 | 18.23191 | -101.02017 | 34295 ft | 451 kts | 318° |
| 2026-05-06 01:16 | 18.25603 | -101.04115 | 34657 ft | 449 kts | 318° |
| 2026-05-06 01:16 | 18.28005 | -101.06208 | 35046 ft | 448 kts | 318° |
| 2026-05-06 01:16 | 18.30400 | -101.08294 | 35421 ft | 447 kts | 318° |
| 2026-05-06 01:16 | 18.32793 | -101.10376 | 35782 ft | 446 kts | 318° |
| 2026-05-06 01:17 | 18.35182 | -101.12456 | 36147 ft | 445 kts | 318° |
| 2026-05-06 01:17 | 18.37564 | -101.14531 | 36509 ft | 444 kts | 318° |
| 2026-05-06 01:17 | 18.39943 | -101.16605 | 36825 ft | 442 kts | 319° |
| 2026-05-06 01:17 | 18.42304 | -101.18664 | 37162 ft | 442 kts | 319° |
| 2026-05-06 01:18 | 18.44670 | -101.20724 | 37480 ft | 441 kts | 318° |
| 2026-05-06 01:18 | 18.47036 | -101.22787 | 37736 ft | 442 kts | 317° |
| 2026-05-06 01:18 | 18.51738 | -101.26896 | 37752 ft | 442 kts | 318° |
| 2026-05-06 01:19 | 18.56470 | -101.31023 | 37791 ft | 442 kts | 318° |
| 2026-05-06 01:19 | 18.61204 | -101.35151 | 37793 ft | 442 kts | 319° |
| 2026-05-06 01:20 | 18.65938 | -101.39290 | 37774 ft | 442 kts | 317° |
| 2026-05-06 01:20 | 18.70668 | -101.43434 | 37776 ft | 442 kts | 318° |
| 2026-05-06 01:21 | 18.75397 | -101.47583 | 37799 ft | 442 kts | 317° |
| 2026-05-06 01:21 | 18.80156 | -101.51752 | 37802 ft | 442 kts | 317° |
| 2026-05-06 01:22 | 18.84885 | -101.55891 | 37806 ft | 442 kts | 317° |
| 2026-05-06 01:22 | 18.89608 | -101.60041 | 37818 ft | 441 kts | 318° |
| 2026-05-06 01:23 | 18.94296 | -101.64163 | 37839 ft | 441 kts | 317° |
| 2026-05-06 01:23 | 18.99045 | -101.68340 | 37836 ft | 441 kts | 318° |
| 2026-05-06 01:24 | 19.03765 | -101.72488 | 37858 ft | 441 kts | 318° |
| 2026-05-06 01:24 | 19.08504 | -101.76657 | 36740 ft | 453 kts | 318° |
| 2026-05-06 01:25 | 19.10953 | -101.78823 | 35816 ft | 462 kts | 318° |
| 2026-05-06 01:25 | 19.13403 | -101.80990 | 35507 ft | 456 kts | 318° |
| 2026-05-06 01:25 | 19.15832 | -101.83132 | 35111 ft | 452 kts | 317° |
| 2026-05-06 01:25 | 19.18244 | -101.85255 | 34669 ft | 450 kts | 317° |
| 2026-05-06 01:26 | 19.20642 | -101.87367 | 34221 ft | 448 kts | 317° |
| 2026-05-06 01:26 | 19.23028 | -101.89472 | 33736 ft | 446 kts | 317° |
| 2026-05-06 01:26 | 19.25403 | -101.91568 | 33273 ft | 442 kts | 317° |
| 2026-05-06 01:26 | 19.27760 | -101.93646 | 32833 ft | 439 kts | 317° |
| 2026-05-06 01:27 | 19.30096 | -101.95707 | 32382 ft | 436 kts | 317° |
| 2026-05-06 01:27 | 19.32419 | -101.97758 | 31953 ft | 433 kts | 317° |
| 2026-05-06 01:27 | 19.34726 | -101.99798 | 31495 ft | 431 kts | 317° |
| 2026-05-06 01:27 | 19.37015 | -102.01829 | 31039 ft | 429 kts | 317° |
| 2026-05-06 01:28 | 19.39348 | -102.03771 | 30611 ft | 428 kts | 324° |
| 2026-05-06 01:28 | 19.41950 | -102.05296 | 30175 ft | 428 kts | 333° |
| 2026-05-06 01:28 | 19.44646 | -102.06629 | 29714 ft | 425 kts | 333° |
| 2026-05-06 01:28 | 19.47311 | -102.07951 | 29307 ft | 421 kts | 332° |
| 2026-05-06 01:29 | 19.49955 | -102.09269 | 28880 ft | 418 kts | 333° |
| 2026-05-06 01:29 | 19.52579 | -102.10578 | 28469 ft | 416 kts | 333° |
| 2026-05-06 01:29 | 19.55195 | -102.11881 | 28048 ft | 414 kts | 333° |
| 2026-05-06 01:29 | 19.57794 | -102.13173 | 27615 ft | 412 kts | 333° |
| 2026-05-06 01:30 | 19.60385 | -102.14458 | 27184 ft | 410 kts | 333° |
| 2026-05-06 01:30 | 19.62958 | -102.15737 | 26753 ft | 408 kts | 333° |
| 2026-05-06 01:30 | 19.65520 | -102.17014 | 26299 ft | 406 kts | 333° |
| 2026-05-06 01:30 | 19.68071 | -102.18290 | 25861 ft | 404 kts | 333° |
| 2026-05-06 01:31 | 19.70614 | -102.19558 | 25371 ft | 404 kts | 333° |
| 2026-05-06 01:31 | 19.73158 | -102.20828 | 24943 ft | 403 kts | 333° |
| 2026-05-06 01:31 | 19.75696 | -102.22097 | 24491 ft | 403 kts | 334° |
| 2026-05-06 01:31 | 19.78230 | -102.23365 | 24048 ft | 401 kts | 334° |
| 2026-05-06 01:32 | 19.80736 | -102.24618 | 23876 ft | 396 kts | 334° |
| 2026-05-06 01:32 | 19.83222 | -102.25862 | 23883 ft | 395 kts | 334° |
| 2026-05-06 01:32 | 19.85711 | -102.27108 | 23886 ft | 396 kts | 333° |
| 2026-05-06 01:32 | 19.88053 | -102.28632 | 23589 ft | 396 kts | 320° |
| 2026-05-06 01:33 | 19.89991 | -102.30741 | 22740 ft | 402 kts | 303° |
| 2026-05-06 01:33 | 19.91345 | -102.33317 | 22120 ft | 398 kts | 289° |
| 2026-05-06 01:33 | 19.92262 | -102.36069 | 21576 ft | 393 kts | 286° |
| 2026-05-06 01:33 | 19.93165 | -102.38804 | 20878 ft | 391 kts | 287° |
| 2026-05-06 01:34 | 19.94073 | -102.41507 | 20247 ft | 386 kts | 287° |
| 2026-05-06 01:34 | 19.94973 | -102.44176 | 19634 ft | 381 kts | 287° |
| 2026-05-06 01:34 | 19.95864 | -102.46817 | 19027 ft | 377 kts | 287° |
| 2026-05-06 01:34 | 19.96739 | -102.49421 | 18462 ft | 372 kts | 287° |
| 2026-05-06 01:35 | 19.97600 | -102.51995 | 17861 ft | 368 kts | 287° |
| 2026-05-06 01:35 | 19.98451 | -102.54543 | 17281 ft | 362 kts | 287° |
| 2026-05-06 01:35 | 19.99277 | -102.57032 | 16850 ft | 353 kts | 287° |
| 2026-05-06 01:35 | 20.00243 | -102.59389 | 16424 ft | 345 kts | 299° |
| 2026-05-06 01:36 | 20.01716 | -102.61373 | 16011 ft | 341 kts | 315° |
| 2026-05-06 01:36 | 20.03603 | -102.62859 | 15576 ft | 336 kts | 330° |
| 2026-05-06 01:36 | 20.05677 | -102.63980 | 15163 ft | 333 kts | 332° |
| 2026-05-06 01:36 | 20.07740 | -102.65088 | 14759 ft | 332 kts | 332° |
| 2026-05-06 01:37 | 20.09799 | -102.66201 | 14340 ft | 332 kts | 332° |
| 2026-05-06 01:37 | 20.11855 | -102.67316 | 13964 ft | 330 kts | 332° |
| 2026-05-06 01:37 | 20.13894 | -102.68348 | 13839 ft | 320 kts | 340° |
| 2026-05-06 01:37 | 20.16043 | -102.68801 | 13686 ft | 312 kts | 358° |
| 2026-05-06 01:38 | 20.18153 | -102.68565 | 13681 ft | 302 kts | 14° |
| 2026-05-06 01:38 | 20.20114 | -102.67788 | 13656 ft | 301 kts | 22° |
| 2026-05-06 01:38 | 20.22145 | -102.67320 | 13404 ft | 298 kts | 0° |
| 2026-05-06 01:38 | 20.24166 | -102.67679 | 13158 ft | 294 kts | 337° |
| 2026-05-06 01:39 | 20.25885 | -102.68807 | 12902 ft | 289 kts | 315° |
| 2026-05-06 01:39 | 20.27084 | -102.70522 | 12649 ft | 285 kts | 294° |
| 2026-05-06 01:39 | 20.27877 | -102.72452 | 12394 ft | 284 kts | 291° |
| 2026-05-06 01:39 | 20.28659 | -102.74381 | 12152 ft | 282 kts | 291° |
| 2026-05-06 01:40 | 20.29440 | -102.76292 | 11912 ft | 281 kts | 291° |
| 2026-05-06 01:40 | 20.29954 | -102.77545 | 11795 ft | 277 kts | 293° |
| 2026-05-06 01:40 | 20.30721 | -102.79413 | 11534 ft | 274 kts | 293° |
| 2026-05-06 01:40 | 20.31730 | -102.81876 | 11137 ft | 274 kts | 293° |
| 2026-05-06 01:41 | 20.32493 | -102.83743 | 10828 ft | 274 kts | 293° |
| 2026-05-06 01:41 | 20.33253 | -102.85606 | 10532 ft | 275 kts | 291° |
| 2026-05-06 01:41 | 20.34017 | -102.87476 | 10210 ft | 275 kts | 291° |
| 2026-05-06 01:41 | 20.34533 | -102.88738 | 9992 ft | 275 kts | 292° |
| 2026-05-06 01:42 | 20.35295 | -102.90605 | 9676 ft | 275 kts | 292° |
| 2026-05-06 01:42 | 20.36054 | -102.92469 | 9357 ft | 274 kts | 292° |
| 2026-05-06 01:42 | 20.36746 | -102.94348 | 9095 ft | 270 kts | 290° |
| 2026-05-06 01:42 | 20.37442 | -102.96161 | 9020 ft | 259 kts | 292° |
| 2026-05-06 01:43 | 20.38160 | -102.97864 | 8920 ft | 246 kts | 293° |
| 2026-05-06 01:43 | 20.38849 | -102.99479 | 8814 ft | 233 kts | 292° |
| 2026-05-06 01:43 | 20.39496 | -103.01008 | 8731 ft | 220 kts | 293° |
| 2026-05-06 01:43 | 20.40115 | -103.02473 | 8664 ft | 214 kts | 293° |
| 2026-05-06 01:44 | 20.40725 | -103.03918 | 8672 ft | 209 kts | 293° |
| 2026-05-06 01:44 | 20.41292 | -103.05259 | 8673 ft | 189 kts | 293° |
| 2026-05-06 01:44 | 20.41818 | -103.06505 | 8664 ft | 182 kts | 293° |
| 2026-05-06 01:44 | 20.42328 | -103.07713 | 8536 ft | 179 kts | 292° |
| 2026-05-06 01:45 | 20.42848 | -103.08946 | 8334 ft | 180 kts | 292° |
| 2026-05-06 01:45 | 20.43359 | -103.10157 | 8134 ft | 178 kts | 292° |
| 2026-05-06 01:45 | 20.43864 | -103.11354 | 7924 ft | 176 kts | 292° |
| 2026-05-06 01:45 | 20.44366 | -103.12544 | 7921 ft | 176 kts | 292° |
| 2026-05-06 01:46 | 20.44865 | -103.13727 | 7739 ft | 172 kts | 294° |
| 2026-05-06 01:46 | 20.45351 | -103.14880 | 7552 ft | 166 kts | 294° |
| 2026-05-06 01:46 | 20.45793 | -103.15929 | 7368 ft | 147 kts | 294° |
| 2026-05-06 01:46 | 20.46206 | -103.16908 | 7224 ft | 140 kts | 294° |
| 2026-05-06 01:47 | 20.46601 | -103.17846 | 7086 ft | 138 kts | 294° |
| 2026-05-06 01:47 | 20.46991 | -103.18771 | 6940 ft | 135 kts | 295° |
| 2026-05-06 01:47 | 20.47375 | -103.19684 | 6807 ft | 135 kts | 295° |
| 2026-05-06 01:47 | 20.47759 | -103.20594 | 6667 ft | 135 kts | 294° |
| 2026-05-06 01:48 | 20.48142 | -103.21504 | 6528 ft | 134 kts | 294° |
| 2026-05-06 01:48 | 20.48525 | -103.22414 | 6378 ft | 135 kts | 294° |
| 2026-05-06 01:48 | 20.48910 | -103.23328 | 6236 ft | 135 kts | 294° |
| 2026-05-06 01:48 | 20.49296 | -103.24248 | 6126 ft | 138 kts | 292° |
| 2026-05-06 01:49 | 20.49687 | -103.25170 | 5970 ft | 135 kts | 294° |
| 2026-05-06 01:49 | 20.50066 | -103.26075 | 5788 ft | 132 kts | 293° |
| 2026-05-06 01:49 | 20.50444 | -103.26983 | 5574 ft | 134 kts | 293° |
| 2026-05-06 01:49 | 20.50820 | -103.27883 | 5369 ft | 134 kts | 294° |
| 2026-05-06 01:50 | 20.51205 | -103.28797 | 5173 ft | 136 kts | 294° |
| 2026-05-06 01:50 | 20.51590 | -103.29703 | 5037 ft | 126 kts | 293° |
| 2026-05-06 01:50 | 20.51910 | -103.30468 | 5028 ft | 91 kts | 294° |
| 2026-05-06 01:50 | 20.52103 | -103.30922 | 5028 ft | 50 kts | 294° |
| 2026-05-06 01:51 | 20.52231 | -103.31226 | 5032 ft | 48 kts | 294° |
| 2026-05-06 01:51 | 20.52354 | -103.31456 | 5031 ft | 15 kts | 312° |
| 2026-05-06 01:51 | 20.52442 | -103.31540 | 5030 ft | 19 kts | 323° |
| 2026-05-06 01:51 | 20.52561 | -103.31589 | 5029 ft | 16 kts | 18° |
| 2026-05-06 01:52 | 20.52630 | -103.31557 | 5029 ft | 11 kts | 24° |
| 2026-05-06 01:52 | 20.52711 | -103.31519 | 5029 ft | 14 kts | 24° |
| 2026-05-06 01:52 | 20.52768 | -103.31476 | 5028 ft | 8 kts | 71° |
| 2026-05-06 01:52 | 20.52748 | -103.31412 | 5026 ft | 10 kts | 114° |
| 2026-05-06 01:53 | 20.52717 | -103.31337 | 5027 ft | 12 kts | 114° |
| 2026-05-06 01:53 | 20.52683 | -103.31256 | 5029 ft | 12 kts | 114° |
| 2026-05-06 01:53 | 20.52646 | -103.31169 | 5027 ft | 13 kts | 114° |
| 2026-05-06 01:53 | 20.52607 | -103.31076 | 5029 ft | 14 kts | 114° |
| 2026-05-06 01:54 | 20.52564 | -103.30974 | 5029 ft | 15 kts | 114° |
| 2026-05-06 01:54 | 20.52521 | -103.30870 | 5029 ft | 16 kts | 114° |
| 2026-05-06 01:54 | 20.52489 | -103.30766 | 5029 ft | 13 kts | 88° |
| 2026-05-06 01:54 | 20.52514 | -103.30689 | 5029 ft | 11 kts | 69° |
| 2026-05-06 01:55 | 20.52542 | -103.30610 | 5026 ft | 9 kts | 70° |
| 2026-05-06 01:55 | 20.52509 | -103.30562 | 5029 ft | 9 kts | 154° |
| 2026-05-06 01:55 | 20.52452 | -103.30528 | 5029 ft | 10 kts | 136° |
| 2026-05-06 01:55 | 20.52423 | -103.30458 | 5025 ft | 11 kts | 106° |
| 2026-05-06 01:56 | 20.52447 | -103.30402 | 5029 ft | 8 kts | 37° |
| 2026-05-06 01:56 | 20.52448 | -103.30351 | 5029 ft | 8 kts | 108° |
| 2026-05-06 01:56 | 20.52429 | -103.30292 | 5029 ft | 9 kts | 109° |
| 2026-05-06 01:56 | 20.52408 | -103.30218 | 5025 ft | 11 kts | 100° |
| 2026-05-06 01:57 | 20.52386 | -103.30134 | 5029 ft | 12 kts | 108° |
| 2026-05-06 01:57 | 20.52357 | -103.30046 | 5029 ft | 10 kts | 109° |
| 2026-05-06 01:57 | 20.52355 | -103.30005 | 5029 ft | 4 kts | 47° |
| 2026-05-06 01:57 | 20.52378 | -103.29995 | 5029 ft | 4 kts | 18° |
| 2026-05-06 01:58 | 20.52395 | -103.29989 | 5029 ft | 3 kts | 19° |
| 2026-05-06 01:58 | 20.52407 | -103.29984 | 5029 ft | 1 kts | 19° |
| 2026-05-06 01:58 | 20.52411 | -103.29983 | 5029 ft | 0 kts | 19° |